Terminal Aerodrome Forecast
Issued by NWS Albany, NY

Home | Current Version | Previous Version | Text Only | Print | Product List | Glossary On
Versions: 1 2 3 4 5 6 7 8 9 10 11 12 13 14 15 16 17 18 19 20
000
FTUS41 KALY 260520
TAFALB
TAF
KALB 260520Z 2606/2706 36004KT 6SM -SHRA OVC020
      TEMPO 2606/2610 3SM -TSRA BR BKN008CB
     FM261500 33006KT P6SM VCSH OVC015 PROB30 2615/2618 4SM -SHRA
      OVC007=

USA.gov is the U.S. government's official web portal to all federal, state and local government web resources and services.